Sunday, August 19, 2018, 5:51 PM GMT
Back to Local

CWPD, Parc Des Laurentid

Location: , , Canada Lat: 47.567
Local Time: 5:51 PM GMT (17:51 GMT) Lon: -71.233
Time Zone: GMT Elev: 2634 ft

Show me the last for .
Show Coded

Time T Td Feel RH Dir Speed Gust Alt SLP Vis Weather Sky Remarks
2018-08-19 17:00 68 46 - 45 30° 3 - - 30.07 0 None
2018-08-19 16:00 66 42 - 42 20° 3 - - 30.08 0 None
2018-08-19 15:00 64 47 - 54 70° 1 - - 30.08 0 None
2018-08-19 14:00 62 44 - 50 90° 2 - - 30.07 0 None
2018-08-19 13:00 55 49 - 81 200° 1 - - 30.08 0 None
2018-08-19 12:00 50 50 - 98 - Calm - - 30.08 0 None
2018-08-19 11:00 43 42 - 97 200° 2 - - 30.09 0 None
2018-08-19 10:00 40 40 38 97 200° 3 - - 30.06 0 None
2018-08-19 09:00 41 40 39 96 200° 3 - - 30.03 0 None
2018-08-19 08:00 42 41 40 96 200° 3 - - 30.01 0 None
2018-08-19 07:00 43 42 41 96 200° 3 - - 30.01 0 None
2018-08-19 06:00 44 43 43 96 200° 3 - - 30.00 0 None
2018-08-19 05:00 45 44 - 95 220° 2 - - 29.99 0 None
2018-08-19 04:00 47 46 46 94 200° 3 - - 29.98 0 None
2018-08-19 03:00 49 47 - 93 200° 1 - - 29.98 0 None
2018-08-19 02:00 52 50 - 92 20° 1 - - 29.97 0 None
2018-08-19 01:00 55 52 - 88 10° 1 - - 29.96 0 None
2018-08-19 00:00 59 53 - 79 340° 5 - - 29.93 0 None
2018-08-18 23:00 61 53 - 74 340° 5 - - 29.91 0 None
2018-08-18 22:00 64 49 - 59 350° 6 - - 29.89 0 None
2018-08-18 21:00 68 50 - 51 350° 5 - - 29.87 0 None
2018-08-18 20:00 69 49 - 50 10° 5 - - 29.87 0 None
2018-08-18 19:00 66 49 - 53 20° 6 - - 29.87 0 None
2018-08-18 18:00 65 51 - 60 30° 6 - - 29.87 0 None

Support USWX by starting your Amazon purchase here.